Time,TemperatureF,DewpointF,PressureIn,WindDirection,WindDirectionDegrees,WindSpeedMPH,WindSpeedGustMPH,Humidity,HourlyPrecipIn,Conditions,Clouds,dailyrainin,SoftwareType,DateUTC
2013-09-11 00:00:00,71.1,67.0,30.23,WSW,248,0.0,0.0,87,0.00,,---,0.00,VWS V14.01,2013-09-11 04:00:00,
2013-09-11 00:30:00,70.7,67.0,30.23,WSW,248,0.0,0.0,88,0.00,,---,0.00,VWS V14.01,2013-09-11 04:30:00,
2013-09-11 01:00:00,70.6,66.9,30.22,WSW,248,0.0,0.0,88,0.00,,---,0.00,VWS V14.01,2013-09-11 05:00:00,
2013-09-11 01:30:00,70.1,66.4,30.21,WSW,248,0.0,0.0,88,0.00,,---,0.00,VWS V14.01,2013-09-11 05:30:00,
2013-09-11 02:00:00,69.3,65.9,30.21,WSW,248,0.0,0.0,89,0.00,,---,0.00,VWS V14.01,2013-09-11 06:00:00,
2013-09-11 02:30:00,68.6,65.2,30.21,WSW,248,0.0,0.0,89,0.00,,---,0.00,VWS V14.01,2013-09-11 06:30:00,
2013-09-11 03:00:00,68.2,64.8,30.20,WSW,248,0.0,0.0,89,0.00,,---,0.00,VWS V14.01,2013-09-11 07:00:00,
2013-09-11 03:30:00,67.8,64.4,30.19,WSW,248,0.0,0.0,89,0.00,,---,0.00,VWS V14.01,2013-09-11 07:30:00,
2013-09-11 04:00:00,67.7,64.0,30.19,WSW,248,0.0,0.0,88,0.00,,---,0.00,VWS V14.01,2013-09-11 08:00:00,
2013-09-11 04:30:00,67.3,63.6,30.19,WSW,248,0.0,0.0,88,0.00,,---,0.00,VWS V14.01,2013-09-11 08:30:00,
2013-09-11 05:00:00,67.7,64.0,30.19,WSW,248,0.0,0.0,88,0.00,,---,0.00,VWS V14.01,2013-09-11 09:00:00,
2013-09-11 05:29:00,66.7,63.0,30.20,WSW,248,0.0,0.0,88,0.00,,---,0.00,VWS V14.01,2013-09-11 09:29:00,
2013-09-11 05:30:00,67.3,63.6,30.19,WSW,248,0.0,0.0,88,0.00,,---,0.00,VWS V14.01,2013-09-11 09:30:00,
2013-09-11 05:59:00,66.3,62.6,30.21,WSW,248,0.0,0.0,88,0.00,,---,0.00,VWS V14.01,2013-09-11 09:59:00,
2013-09-11 06:00:00,66.3,62.7,30.21,WSW,248,0.0,0.0,88,0.00,,---,0.00,VWS V14.01,2013-09-11 10:00:00,
2013-09-11 06:30:00,66.7,63.0,30.20,WSW,248,0.0,0.0,88,0.00,,---,0.00,VWS V14.01,2013-09-11 10:30:00,
2013-09-11 06:59:00,65.8,61.8,30.21,WSW,249,0.0,0.0,87,0.00,,---,0.00,VWS V14.01,2013-09-11 10:59:00,
2013-09-11 07:00:00,66.3,62.7,30.21,WSW,248,0.0,0.0,88,0.00,,---,0.00,VWS V14.01,2013-09-11 11:00:00,
2013-09-11 07:29:00,65.8,61.8,30.22,WSW,249,0.0,0.0,87,0.00,,---,0.00,VWS V14.01,2013-09-11 11:29:00,
2013-09-11 07:30:00,65.8,61.8,30.22,WSW,249,0.0,0.0,87,0.00,,---,0.00,VWS V14.01,2013-09-11 11:30:00,
2013-09-11 07:59:00,66.5,62.5,30.22,WSW,249,0.0,0.0,87,0.00,,---,0.00,VWS V14.01,2013-09-11 11:59:00,
2013-09-11 08:00:00,65.8,61.8,30.21,WSW,249,0.0,0.0,87,0.00,,---,0.00,VWS V14.01,2013-09-11 12:00:00,
2013-09-11 08:29:00,68.3,65.3,30.23,WSW,249,0.0,0.0,90,0.00,,---,0.00,VWS V14.01,2013-09-11 12:29:00,
2013-09-11 08:30:00,65.8,61.8,30.22,WSW,249,0.0,0.0,87,0.00,,---,0.00,VWS V14.01,2013-09-11 12:30:00,
2013-09-11 08:59:00,70.5,65.8,30.24,WSW,257,0.0,0.0,85,0.00,,---,0.00,VWS V14.01,2013-09-11 12:59:00,
2013-09-11 09:00:00,66.5,62.5,30.22,WSW,249,0.0,0.0,87,0.00,,---,0.00,VWS V14.01,2013-09-11 13:00:00,
2013-09-11 09:29:00,72.8,67.0,30.24,WNW,302,0.0,0.0,82,0.00,,---,0.00,VWS V14.01,2013-09-11 13:29:00,
2013-09-11 09:30:00,68.3,65.3,30.23,WSW,249,0.0,0.0,90,0.00,,---,0.00,VWS V14.01,2013-09-11 13:30:00,
2013-09-11 09:59:00,76.2,68.5,30.23,West,278,0.0,0.0,77,0.00,,---,0.00,VWS V14.01,2013-09-11 13:59:00,
2013-09-11 10:00:00,70.5,65.8,30.24,WSW,257,0.0,0.0,85,0.00,,---,0.00,VWS V14.01,2013-09-11 14:00:00,
2013-09-11 10:29:00,79.2,68.6,30.23,SSE,148,0.0,0.0,70,0.00,,---,0.00,VWS V14.01,2013-09-11 14:29:00,
2013-09-11 10:30:00,72.8,67.0,30.24,WNW,302,0.0,0.0,82,0.00,,---,0.00,VWS V14.01,2013-09-11 14:30:00,
2013-09-11 10:59:00,80.4,68.0,30.23,WNW,287,0.0,1.0,66,0.00,,---,0.00,VWS V14.01,2013-09-11 14:59:00,
2013-09-11 11:00:00,76.2,68.5,30.23,West,278,0.0,0.0,77,0.00,,---,0.00,VWS V14.01,2013-09-11 15:00:00,
2013-09-11 11:29:00,80.5,68.1,30.22,East,94,0.0,0.0,66,0.00,,---,0.00,VWS V14.01,2013-09-11 15:29:00,
2013-09-11 11:30:00,79.2,68.6,30.23,SSE,148,0.0,0.0,70,0.00,,---,0.00,VWS V14.01,2013-09-11 15:30:00,
2013-09-11 11:59:00,81.3,68.0,30.21,SW,225,0.0,0.0,64,0.00,,---,0.00,VWS V14.01,2013-09-11 15:59:00,
2013-09-11 12:00:00,80.4,68.0,30.23,WNW,287,0.0,1.0,66,0.00,,---,0.00,VWS V14.01,2013-09-11 16:00:00,
2013-09-11 12:29:00,81.8,68.4,30.20,South,181,0.0,0.0,64,0.00,,---,0.00,VWS V14.01,2013-09-11 16:29:00,
2013-09-11 12:30:00,80.5,68.1,30.22,East,94,0.0,0.0,66,0.00,,---,0.00,VWS V14.01,2013-09-11 16:30:00,
2013-09-11 12:59:00,84.0,68.6,30.19,WNW,285,0.0,0.0,60,0.00,,---,0.00,VWS V14.01,2013-09-11 16:59:00,
2013-09-11 13:00:00,81.3,68.0,30.21,SW,225,0.0,0.0,64,0.00,,---,0.00,VWS V14.01,2013-09-11 17:00:00,
2013-09-11 13:30:00,84.0,69.6,30.19,West,270,0.0,1.0,62,0.00,,---,0.00,VWS V14.01,2013-09-11 17:30:00,
2013-09-11 14:00:00,86.7,67.5,30.17,WNW,292,0.0,1.0,53,0.00,,---,0.00,VWS V14.01,2013-09-11 18:00:00,
2013-09-11 14:30:00,90.5,66.3,30.16,SW,225,0.0,2.0,45,0.00,,---,0.00,VWS V14.01,2013-09-11 18:30:00,
2013-09-11 15:00:00,91.3,66.3,30.14,WNW,292,0.0,3.0,44,0.00,,---,0.00,VWS V14.01,2013-09-11 19:00:00,
2013-09-11 15:30:00,92.4,63.9,30.14,SW,225,1.0,4.0,39,0.00,,---,0.00,VWS V14.01,2013-09-11 19:30:00,
2013-09-11 16:00:00,90.8,66.6,30.13,West,270,1.0,5.0,45,0.00,,---,0.00,VWS V14.01,2013-09-11 20:00:00,
2013-09-11 16:30:00,89.9,66.4,30.12,SW,225,1.0,6.0,46,0.00,,---,0.00,VWS V14.01,2013-09-11 20:30:00,
2013-09-11 17:00:00,87.3,65.8,30.12,SW,225,0.0,4.0,49,0.00,,---,0.00,VWS V14.01,2013-09-11 21:00:00,
2013-09-11 17:30:00,84.7,65.7,30.11,SW,225,0.0,3.0,53,0.00,,---,0.00,VWS V14.01,2013-09-11 21:30:00,
2013-09-11 18:00:00,83.3,64.9,30.11,SW,225,1.0,4.0,54,0.00,,---,0.00,VWS V14.01,2013-09-11 22:00:00,
2013-09-11 18:30:00,82.8,66.5,30.11,SW,225,0.0,3.0,58,0.00,,---,0.00,VWS V14.01,2013-09-11 22:30:00,
2013-09-11 19:00:00,82.3,67.5,30.11,SE,135,0.0,1.0,61,0.00,,---,0.00,VWS V14.01,2013-09-11 23:00:00,
2013-09-11 19:30:00,80.5,67.7,30.11,SE,135,0.0,0.0,65,0.00,,---,0.00,VWS V14.01,2013-09-11 23:30:00,
2013-09-11 20:00:00,78.4,68.2,30.12,SE,135,0.0,0.0,71,0.00,,---,0.00,VWS V14.01,2013-09-12 00:00:00,
2013-09-11 20:30:00,76.8,67.5,30.12,SE,135,0.0,0.0,73,0.00,,---,0.00,VWS V14.01,2013-09-12 00:30:00,
2013-09-11 21:00:00,75.7,67.2,30.12,SE,135,0.0,0.0,75,0.00,,---,0.00,VWS V14.01,2013-09-12 01:00:00,
2013-09-11 21:30:00,74.9,67.2,30.12,SE,135,0.0,0.0,77,0.00,,---,0.00,VWS V14.01,2013-09-12 01:30:00,
2013-09-11 22:00:00,74.1,67.2,30.12,SE,135,0.0,0.0,79,0.00,,---,0.00,VWS V14.01,2013-09-12 02:00:00,
2013-09-11 22:30:00,73.6,66.7,30.12,SE,135,0.0,0.0,79,0.00,,---,0.00,VWS V14.01,2013-09-12 02:30:00,
2013-09-11 23:00:00,73.0,66.8,30.12,SE,135,0.0,0.0,81,0.00,,---,0.00,VWS V14.01,2013-09-12 03:00:00,
2013-09-11 23:30:00,72.3,66.5,30.11,SE,135,0.0,0.0,82,0.00,,---,0.00,VWS V14.01,2013-09-12 03:30:00,